createdAt,value
2019-01-14T00:02:48.699Z,4.55
2019-01-14T00:05:38.291Z,4.55
2019-01-14T00:08:47.335Z,4.50
2019-01-14T00:11:37.674Z,4.50
2019-01-14T00:14:27.599Z,4.49
2019-01-14T00:17:36.390Z,4.52
2019-01-14T00:20:26.280Z,4.52
2019-01-14T00:23:16.043Z,4.52
2019-01-14T00:26:05.962Z,4.58
2019-01-14T00:28:56.960Z,4.54
2019-01-14T00:31:46.976Z,4.56
2019-01-14T00:34:43.520Z,4.53
2019-01-14T00:37:54.637Z,4.50
2019-01-14T00:40:44.878Z,4.44
2019-01-14T00:43:34.847Z,4.40
2019-01-14T00:46:24.610Z,4.50
2019-01-14T00:49:15.158Z,4.49
2019-01-14T00:52:08.448Z,4.47
2019-01-14T00:55:38.622Z,4.50
2019-01-14T00:58:30.465Z,4.49
2019-01-14T01:01:22.189Z,4.41
2019-01-14T01:04:12.734Z,4.35
2019-01-14T01:07:02.870Z,4.27
2019-01-14T01:09:52.569Z,4.32
2019-01-14T01:12:42.666Z,4.26
2019-01-14T01:15:32.358Z,4.05
2019-01-14T01:18:22.268Z,3.93
2019-01-14T01:21:11.801Z,3.88
2019-01-14T01:24:01.779Z,3.81
2019-01-14T01:26:51.446Z,3.76
2019-01-14T01:29:41.895Z,3.75
2019-01-14T01:32:31.591Z,3.73
2019-01-14T01:35:21.860Z,3.73
2019-01-14T01:38:11.900Z,3.78
2019-01-14T01:41:02.269Z,3.75
2019-01-14T01:43:52.813Z,3.68
2019-01-14T01:46:42.513Z,3.63
2019-01-14T01:49:32.209Z,3.60
2019-01-14T01:52:22.137Z,3.56
2019-01-14T01:55:12.325Z,3.56
2019-01-14T01:58:02.374Z,3.51
2019-01-14T02:00:52.565Z,3.50
2019-01-14T02:03:42.347Z,3.50
2019-01-14T02:06:38.990Z,3.49
2019-01-14T02:09:23.325Z,3.48
2019-01-14T02:12:13.111Z,3.41
2019-01-14T02:15:03.410Z,3.47
2019-01-14T02:17:53.620Z,3.53
2019-01-14T02:20:43.093Z,3.52
2019-01-14T02:23:32.781Z,3.54
2019-01-14T02:26:22.707Z,3.57
2019-01-14T02:29:12.392Z,3.57
2019-01-14T02:32:02.855Z,3.57
2019-01-14T02:34:52.527Z,3.50
2019-01-14T02:37:42.636Z,3.48
2019-01-14T02:40:33.234Z,3.45
2019-01-14T02:43:22.691Z,3.37
2019-01-14T02:46:12.364Z,3.38
2019-01-14T02:49:01.842Z,3.38
2019-01-14T02:51:53.864Z,3.41
2019-01-14T02:54:43.587Z,3.44
2019-01-14T02:57:33.026Z,3.41
2019-01-14T03:00:27.688Z,3.41
2019-01-14T03:03:17.788Z,3.46
2019-01-14T03:06:07.243Z,3.43
2019-01-14T03:08:56.997Z,3.46
2019-01-14T03:11:46.756Z,3.40
2019-01-14T03:14:37.252Z,3.46
2019-01-14T03:17:27.504Z,3.57
2019-01-14T03:20:17.174Z,3.49
2019-01-14T03:23:06.690Z,3.49
2019-01-14T03:25:58.292Z,3.43
2019-01-14T03:28:47.899Z,3.38
2019-01-14T03:31:37.361Z,3.45
2019-01-14T03:34:28.108Z,3.45
2019-01-14T03:37:18.617Z,3.49
2019-01-14T03:40:10.717Z,3.46
2019-01-14T03:43:00.642Z,3.47
2019-01-14T03:45:51.042Z,3.49
2019-01-14T03:48:59.695Z,3.53
2019-01-14T03:51:49.250Z,3.53
2019-01-14T03:54:39.045Z,3.47
2019-01-14T03:57:28.850Z,3.53
2019-01-14T04:00:18.677Z,3.47
2019-01-14T04:03:08.713Z,3.52
2019-01-14T04:05:58.517Z,3.47
2019-01-14T04:08:48.261Z,3.40
2019-01-14T04:11:37.715Z,3.47
2019-01-14T04:14:27.196Z,3.51
2019-01-14T04:17:17.123Z,3.51
2019-01-14T04:20:08.287Z,3.45
2019-01-14T04:22:58.052Z,3.47
2019-01-14T04:25:47.769Z,3.44
2019-01-14T04:28:37.205Z,3.44
2019-01-14T04:31:27.009Z,3.35
2019-01-14T04:34:16.991Z,3.37
2019-01-14T04:37:06.597Z,3.29
2019-01-14T04:39:56.376Z,3.35
2019-01-14T04:42:46.227Z,3.34
2019-01-14T04:45:36.092Z,3.33
2019-01-14T04:48:27.301Z,3.32
2019-01-14T04:51:16.990Z,3.33
2019-01-14T04:54:06.477Z,3.28
2019-01-14T04:56:56.199Z,3.30
2019-01-14T04:59:45.651Z,3.36
2019-01-14T05:02:36.115Z,3.29
2019-01-14T05:05:25.581Z,3.28
2019-01-14T05:08:15.800Z,3.33
2019-01-14T05:11:24.935Z,3.27
2019-01-14T05:14:14.633Z,3.26
2019-01-14T05:17:05.039Z,3.28
2019-01-14T05:19:54.763Z,3.33
2019-01-14T05:22:44.622Z,3.29
2019-01-14T05:25:34.819Z,3.32
2019-01-14T05:28:25.254Z,3.30
2019-01-14T05:31:15.247Z,3.28
2019-01-14T05:34:05.200Z,3.34
2019-01-14T05:37:13.923Z,3.35
2019-01-14T05:40:43.310Z,3.35
2019-01-14T05:43:33.030Z,3.37
2019-01-14T05:46:22.827Z,3.34
2019-01-14T05:49:31.520Z,3.26
2019-01-14T05:52:21.352Z,3.28
2019-01-14T05:55:11.204Z,3.26
2019-01-14T05:58:01.005Z,3.19
2019-01-14T06:00:51.130Z,3.15
2019-01-14T06:03:59.882Z,3.10
2019-01-14T06:06:49.498Z,3.09
2019-01-14T06:09:39.202Z,3.05
2019-01-14T06:12:29.170Z,3.02
2019-01-14T06:15:19.035Z,2.94
2019-01-14T06:18:28.528Z,2.97
2019-01-14T06:21:17.992Z,2.97
2019-01-14T06:24:07.584Z,3.03
2019-01-14T06:26:57.033Z,3.00
2019-01-14T06:29:46.546Z,3.03
2019-01-14T06:32:36.861Z,3.07
2019-01-14T06:35:26.460Z,3.14
2019-01-14T06:38:16.326Z,3.13
2019-01-14T06:41:05.961Z,3.04
2019-01-14T06:43:55.876Z,3.07
2019-01-14T06:46:45.664Z,3.05
2019-01-14T06:49:35.187Z,3.04
2019-01-14T06:52:24.921Z,3.05
2019-01-14T06:55:15.431Z,3.07
2019-01-14T06:58:45.277Z,3.13
2019-01-14T07:01:34.865Z,3.16
2019-01-14T07:04:24.328Z,3.11
2019-01-14T07:07:13.779Z,3.16
2019-01-14T07:10:03.424Z,3.19
2019-01-14T07:13:12.626Z,3.16
2019-01-14T07:16:02.566Z,3.20
2019-01-14T07:18:51.998Z,3.18
2019-01-14T07:21:41.442Z,3.17
2019-01-14T07:24:31.401Z,3.15
2019-01-14T07:27:21.106Z,3.18
2019-01-14T07:30:13.799Z,3.14
2019-01-14T07:33:03.645Z,3.10
2019-01-14T07:35:53.340Z,3.10
2019-01-14T07:38:42.895Z,3.09
2019-01-14T07:41:32.663Z,3.09
2019-01-14T07:44:22.596Z,3.13
2019-01-14T07:47:12.356Z,3.09
2019-01-14T07:50:02.136Z,3.12
2019-01-14T07:52:51.897Z,3.10
2019-01-14T07:55:42.312Z,3.06
2019-01-14T07:58:32.325Z,3.07
2019-01-14T08:01:40.996Z,3.10
2019-01-14T08:04:30.764Z,3.14
2019-01-14T08:07:20.532Z,3.09
2019-01-14T08:10:29.578Z,3.10
2019-01-14T08:13:19.102Z,3.18
2019-01-14T08:16:20.527Z,3.07
2019-01-14T08:19:10.931Z,3.08
2019-01-14T08:22:01.006Z,3.05
2019-01-14T08:24:50.985Z,3.09
2019-01-14T08:27:41.088Z,3.08
2019-01-14T08:30:49.747Z,3.06
2019-01-14T08:33:39.213Z,3.11
2019-01-14T08:36:48.105Z,3.11
2019-01-14T08:39:37.649Z,3.12
2019-01-14T08:42:27.636Z,3.12
2019-01-14T08:45:36.372Z,3.21
2019-01-14T08:48:26.723Z,3.22
2019-01-14T08:51:35.647Z,3.25
2019-01-14T08:54:25.460Z,3.28
2019-01-14T08:57:15.451Z,3.33
2019-01-14T09:00:24.451Z,3.39
2019-01-14T09:03:33.379Z,3.37
2019-01-14T09:06:22.904Z,3.32
2019-01-14T09:09:13.297Z,3.38
2019-01-14T09:12:03.117Z,3.37
2019-01-14T09:14:52.848Z,3.32
2019-01-14T09:17:42.430Z,3.42
2019-01-14T09:20:32.197Z,3.38
2019-01-14T09:23:22.341Z,3.24
2019-01-14T09:26:11.789Z,3.21
2019-01-14T09:29:01.477Z,3.25
2019-01-14T09:35:01.681Z,3.19
2019-01-14T09:37:51.513Z,3.15
2019-01-14T09:40:42.008Z,3.19
2019-01-14T09:43:32.811Z,3.11
2019-01-14T09:46:22.519Z,3.13
2019-01-14T09:49:11.964Z,3.12
2019-01-14T09:52:01.722Z,3.16
2019-01-14T09:54:51.166Z,3.15
2019-01-14T09:57:40.915Z,3.10
2019-01-14T10:00:30.904Z,3.05
2019-01-14T10:03:20.420Z,3.11
2019-01-14T10:06:10.409Z,3.16
2019-01-14T10:09:00.088Z,3.13
2019-01-14T10:11:49.543Z,3.15
2019-01-14T10:14:39.317Z,3.17
2019-01-14T10:17:30.055Z,3.30
2019-01-14T10:20:20.036Z,3.26
2019-01-14T10:23:09.468Z,3.19
2019-01-14T10:29:09.492Z,3.16
2019-01-14T10:31:58.929Z,3.05
2019-01-14T10:34:48.843Z,3.08
2019-01-14T10:37:38.852Z,3.11
2019-01-14T10:40:28.680Z,3.09
2019-01-14T10:43:18.430Z,3.13
2019-01-14T10:46:27.357Z,3.11
2019-01-14T10:49:17.509Z,3.07
2019-01-14T10:52:07.123Z,3.05
2019-01-14T10:54:56.563Z,3.09
2019-01-14T10:57:46.736Z,3.04
2019-01-14T11:00:36.571Z,3.08
2019-01-14T11:03:26.076Z,2.98
2019-01-14T11:06:15.912Z,2.95
2019-01-14T11:12:18.640Z,2.95
2019-01-14T11:15:11.568Z,2.90
2019-01-14T11:18:01.545Z,2.95
2019-01-14T11:20:51.679Z,2.75
2019-01-14T11:23:41.864Z,2.81
2019-01-14T11:26:31.654Z,2.86
2019-01-14T11:29:21.472Z,2.91
2019-01-14T11:32:30.904Z,2.98
2019-01-14T11:35:40.245Z,2.99
2019-01-14T11:38:50.549Z,2.92
2019-01-14T11:41:40.581Z,2.87
2019-01-14T11:44:30.043Z,2.80
2019-01-14T11:47:19.838Z,2.94
2019-01-14T11:50:11.706Z,3.05
2019-01-14T11:53:01.293Z,3.02
2019-01-14T11:55:50.728Z,3.06
2019-01-14T11:58:40.976Z,2.94
2019-01-14T12:01:31.226Z,2.94
2019-01-14T12:04:21.190Z,2.97
2019-01-14T12:07:10.732Z,2.99
2019-01-14T12:10:00.680Z,2.97
2019-01-14T12:12:51.508Z,3.03
2019-01-14T12:15:41.505Z,3.05
2019-01-14T12:18:31.203Z,3.08
2019-01-14T12:21:21.244Z,3.06
2019-01-14T12:24:10.961Z,3.10
2019-01-14T12:27:00.395Z,3.12
2019-01-14T12:29:50.157Z,3.19
2019-01-14T12:32:40.154Z,3.19
2019-01-14T12:35:30.313Z,3.13
2019-01-14T12:38:20.260Z,3.08
2019-01-14T12:41:09.953Z,3.05
2019-01-14T12:44:00.416Z,3.07
2019-01-14T12:49:47.218Z,2.96
2019-01-14T12:52:37.499Z,2.97
2019-01-14T12:55:27.680Z,2.98
2019-01-14T12:58:17.876Z,2.89
2019-01-14T13:01:08.157Z,2.89
2019-01-14T13:03:58.138Z,2.81
2019-01-14T13:06:48.658Z,2.91
2019-01-14T13:09:38.647Z,2.92
2019-01-14T13:12:28.055Z,2.91
2019-01-14T13:15:20.173Z,2.85
2019-01-14T13:18:10.220Z,2.75
2019-01-14T13:20:59.677Z,2.78
2019-01-14T13:23:49.676Z,2.75
2019-01-14T13:26:39.763Z,2.77
2019-01-14T13:29:29.960Z,2.72
2019-01-14T13:32:20.029Z,2.83
2019-01-14T13:35:29.185Z,2.88
2019-01-14T13:38:19.618Z,2.75
2019-01-14T13:41:09.091Z,2.69
2019-01-14T13:43:58.926Z,2.74
2019-01-14T13:46:49.557Z,2.76
2019-01-14T13:49:39.879Z,2.70
2019-01-14T13:52:30.014Z,2.73
2019-01-14T13:56:11.375Z,2.57
2019-01-14T13:58:50.830Z,1.80
2019-01-14T14:01:59.792Z,1.10
2019-01-14T14:04:50.055Z,1.07
2019-01-14T14:07:40.447Z,1.07
2019-01-14T14:10:49.223Z,0.99
2019-01-14T14:13:39.174Z,0.99
2019-01-14T14:16:29.374Z,1.02
2019-01-14T14:19:30.443Z,0.88
2019-01-14T14:22:20.319Z,0.88
2019-01-14T14:25:29.071Z,0.93
2019-01-14T14:28:18.544Z,0.93
2019-01-14T14:31:08.702Z,0.94
2019-01-14T14:34:17.495Z,0.97
2019-01-14T14:37:07.299Z,0.97
2019-01-14T14:39:56.744Z,0.96
2019-01-14T14:42:46.527Z,0.96
2019-01-14T14:45:36.278Z,0.95
2019-01-14T14:48:45.192Z,1.01
2019-01-14T14:51:54.066Z,0.92
2019-01-14T14:54:44.146Z,0.92
2019-01-14T14:57:52.796Z,1.00
2019-01-14T15:00:42.327Z,1.07
2019-01-14T15:03:50.978Z,1.11
2019-01-14T15:06:40.432Z,1.11
2019-01-14T15:09:55.652Z,1.13
2019-01-14T15:12:41.501Z,1.13
2019-01-14T15:15:31.417Z,1.13
2019-01-14T15:18:21.002Z,1.11
2019-01-14T15:21:10.921Z,1.11
2019-01-14T15:24:03.328Z,1.12
2019-01-14T15:26:53.889Z,1.15
2019-01-14T15:30:03.174Z,1.08
2019-01-14T15:33:12.487Z,1.08
2019-01-14T15:36:21.293Z,1.20
2019-01-14T15:39:30.964Z,1.15
2019-01-14T15:42:20.617Z,1.15
2019-01-14T15:45:29.340Z,1.20
2019-01-14T15:48:18.882Z,1.20
2019-01-14T15:51:27.847Z,1.22
2019-01-14T15:54:17.456Z,1.16
2019-01-14T15:57:26.120Z,1.14
2019-01-14T16:00:34.842Z,1.18
2019-01-14T16:03:24.285Z,1.18
2019-01-14T16:06:33.260Z,1.17
2019-01-14T16:09:42.041Z,1.20
2019-01-14T16:12:31.494Z,1.19
2019-01-14T16:15:21.744Z,1.19
2019-01-14T16:18:11.506Z,1.19
2019-01-14T16:21:13.031Z,1.15
2019-01-14T16:24:02.788Z,1.15
2019-01-14T16:26:52.756Z,1.09
2019-01-14T16:30:01.678Z,1.13
2019-01-14T16:32:51.513Z,1.13
2019-01-14T16:36:00.529Z,1.06
2019-01-14T16:39:09.907Z,1.07
2019-01-14T16:42:18.595Z,1.04
2019-01-14T16:45:11.085Z,1.04
2019-01-14T16:48:20.066Z,1.08
2019-01-14T16:51:28.711Z,1.17
2019-01-14T16:54:37.365Z,1.22
2019-01-14T16:57:46.516Z,1.15
2019-01-14T17:00:36.402Z,1.12
2019-01-14T17:03:26.891Z,1.12
2019-01-14T17:06:16.735Z,1.08
2019-01-14T17:09:25.742Z,1.08
2019-01-14T17:12:17.529Z,1.12
2019-01-14T17:15:29.502Z,1.01
2019-01-14T17:18:19.277Z,1.01
2019-01-14T17:21:28.182Z,1.03
2019-01-14T17:24:18.326Z,0.96
2019-01-14T17:27:27.057Z,1.01
2019-01-14T17:30:17.153Z,1.01
2019-01-14T17:33:06.969Z,0.99
2019-01-14T17:35:56.688Z,0.99
2019-01-14T17:38:47.315Z,0.91
2019-01-14T17:41:56.330Z,0.96
2019-01-14T17:45:06.015Z,0.97
2019-01-14T17:47:56.442Z,0.97
2019-01-14T17:53:22.369Z,0.96
2019-01-14T17:56:11.574Z,0.93
2019-01-14T17:59:00.245Z,0.84
2019-01-14T18:01:48.987Z,0.84
2019-01-14T18:04:37.826Z,1.00
2019-01-14T18:07:27.075Z,0.88
2019-01-14T18:10:16.556Z,0.88
2019-01-14T18:13:05.064Z,0.90
2019-01-14T18:15:54.079Z,0.90
2019-01-14T18:18:43.395Z,0.78
2019-01-14T18:21:32.401Z,0.78
2019-01-14T18:24:21.359Z,0.82
2019-01-14T18:27:10.229Z,0.82
2019-01-14T18:30:00.250Z,0.83
2019-01-14T18:32:49.035Z,0.85
2019-01-14T18:35:37.296Z,0.70
2019-01-14T18:38:26.571Z,0.74
2019-01-14T18:41:15.854Z,0.74
2019-01-14T18:44:05.070Z,0.74
2019-01-14T18:46:54.487Z,0.94
2019-01-14T18:49:43.352Z,0.94
2019-01-14T18:52:32.274Z,0.93
2019-01-14T18:55:21.140Z,0.92
2019-01-14T18:58:10.748Z,1.00
2019-01-14T19:00:59.565Z,0.99
2019-01-14T19:03:48.298Z,0.96
2019-01-14T19:06:37.385Z,0.96
2019-01-14T19:09:26.378Z,0.98
2019-01-14T19:12:15.287Z,1.01
2019-01-14T19:15:05.207Z,1.06
2019-01-14T19:17:54.445Z,1.09
2019-01-14T19:20:49.091Z,1.18
2019-01-14T19:23:37.933Z,1.14
2019-01-14T19:26:26.032Z,1.14
2019-01-14T19:29:19.530Z,1.17
2019-01-14T19:32:08.409Z,1.26
2019-01-14T19:34:57.386Z,1.40
2019-01-14T19:37:46.513Z,1.34
2019-01-14T19:40:35.346Z,1.37
2019-01-14T19:43:23.750Z,1.37
2019-01-14T19:46:12.099Z,1.23
2019-01-14T19:49:01.592Z,1.23
2019-01-14T19:51:51.320Z,1.24
2019-01-14T19:54:40.516Z,1.24
2019-01-14T19:57:29.226Z,1.24
2019-01-14T20:00:25.679Z,1.29
2019-01-14T20:03:15.207Z,1.29
2019-01-14T20:06:04.129Z,1.24
2019-01-14T20:08:52.880Z,1.28
2019-01-14T20:11:41.312Z,1.18
2019-01-14T20:14:30.055Z,1.16
2019-01-14T20:17:18.792Z,1.16
2019-01-14T20:20:08.362Z,1.17
2019-01-14T20:22:56.593Z,1.17
2019-01-14T20:25:48.681Z,1.15
2019-01-14T20:28:56.629Z,1.13
2019-01-14T20:31:46.771Z,1.06
2019-01-14T20:34:35.043Z,1.05
2019-01-14T20:37:24.405Z,1.06
2019-01-14T20:40:14.475Z,1.09
2019-01-14T20:43:03.425Z,1.09
2019-01-14T20:45:52.123Z,1.14
2019-01-14T20:48:41.121Z,1.10
2019-01-14T20:51:29.329Z,1.13
2019-01-14T20:54:18.388Z,1.08
2019-01-14T20:57:07.507Z,1.08
2019-01-14T20:59:57.214Z,1.12
2019-01-14T21:02:51.841Z,1.16
2019-01-14T21:05:40.604Z,1.16
2019-01-14T21:08:29.503Z,1.18
2019-01-14T21:11:23.843Z,1.18
2019-01-14T21:14:10.856Z,1.19
2019-01-14T21:17:01.333Z,1.20
2019-01-14T21:19:58.762Z,1.22
2019-01-14T21:23:15.703Z,1.11
2019-01-14T21:29:39.436Z,1.12
2019-01-14T21:32:28.071Z,1.09
2019-01-14T21:35:17.205Z,1.09
2019-01-14T21:38:05.584Z,0.18
2019-01-14T21:40:54.489Z,0.18
2019-01-14T21:43:42.786Z,0.09
2019-01-14T21:46:50.194Z,0.21
2019-01-14T21:49:38.813Z,0.34
2019-01-14T21:52:27.105Z,0.47
2019-01-14T21:55:18.378Z,0.58
2019-01-14T21:58:08.070Z,0.62
2019-01-14T22:00:56.848Z,0.59
2019-01-14T22:03:46.072Z,0.78
2019-01-14T22:06:35.102Z,0.73
2019-01-14T22:09:23.728Z,0.74
2019-01-14T22:12:12.691Z,0.74
2019-01-14T22:15:01.500Z,0.67
2019-01-14T22:17:50.047Z,0.76
2019-01-14T22:21:00.046Z,0.76
2019-01-14T22:23:48.998Z,0.72
2019-01-14T22:26:37.899Z,0.69
2019-01-14T22:29:45.991Z,0.67
2019-01-14T22:32:34.412Z,0.67
2019-01-14T22:35:23.513Z,0.86
2019-01-14T22:38:12.976Z,0.85
2019-01-14T22:41:01.951Z,0.85
2019-01-14T22:43:50.945Z,0.91
2019-01-14T22:46:40.056Z,0.78
2019-01-14T22:49:30.113Z,0.87
2019-01-14T22:52:19.213Z,0.87
2019-01-14T22:55:31.992Z,0.77
2019-01-14T22:58:20.592Z,0.77
2019-01-14T23:01:39.080Z,0.73
2019-01-14T23:04:27.743Z,0.65
2019-01-14T23:07:16.888Z,0.65
2019-01-14T23:10:06.465Z,0.46
2019-01-14T23:12:54.766Z,-0.35
2019-01-14T23:15:43.964Z,-0.35
2019-01-14T23:18:33.148Z,-0.44
2019-01-14T23:21:21.579Z,-0.55
2019-01-14T23:24:10.183Z,-0.60
2019-01-14T23:26:58.998Z,-0.47
2019-01-14T23:29:48.007Z,-0.36
2019-01-14T23:32:36.274Z,-0.13
2019-01-14T23:35:25.305Z,0.05
2019-01-14T23:38:14.192Z,0.16
2019-01-14T23:41:04.363Z,0.16
2019-01-14T23:43:52.862Z,0.17
2019-01-14T23:46:41.900Z,0.17
2019-01-14T23:49:30.016Z,0.26
2019-01-14T23:52:18.739Z,0.48
2019-01-14T23:55:07.975Z,0.46
2019-01-14T23:57:56.834Z,0.40
